Kensington, Canada
Current Conditions -  °F | °C
As of 2:00 AM on Sunday 23 Nov 2014 (Local Time) from CYYG Reporting Station
Light Snow Light Snow  
Wind Chill: 23°   Ceiling: 600
Heat Index: 32°   Visibility: 2mi
Dew Point: 32°   Wind: 12mph
Humidity: 100%   Direction: 250°WSW
Pressure: 29.81"   Gusts: 20mph
Location:  46.43°N, 63.65°W
Report Text: CYYG 230600Z 25010G17KT 2SM -SN OVC006 00/M00 A2981 RMK SN4SF4 SNW WET /S04/ SLP097
Loading
Personal Weather Stations






























Interactive Weather Map New forecast layout! Learn more

10-Day Weather Forecast

Advertisements
Track Severe Weather on mobile